• Join FlightAware (Why Join?)
  • Login
  • US Flag 
01:48AM EDT


 

Airport Tracker/Info


-or-


 

Live Flight TrackerFlight Track Log ✈ DAL268 ✈ 15-Sep-2013 ✈ KJFK - LLBG / TLV

Flight Track Log - Related Links

Times and Time Zones

All times are in EDT time to prevent confusion due to time zone crossing. See the DAL268 flight status page for this flight to view local times or setup timezone preferences in your user account.

Time Position Orientation Groundspeed Altitude Reporting Facility
EDT Latitude Longitude Course Direction KTS MPH feet Rate Location/Type
09:46PM 40.6019 -73.8039 72° East 176 203 1,200  Level Boston Center
09:47PM 40.5497 -73.8219 195° South 189 217 2,200 1,140 Climbing Boston Center
09:48PM 40.5236 -73.7314 111° Southeast 177 204 3,500 1,740 Climbing Boston Center
09:49PM 40.9755 -73.1586 72° East  Level Estimated
09:49PM 40.5436 -73.6225 76° East 230 265 5,800  Level Boston Center
09:50PM 41.0589 -73.0026 75° East  Level Estimated
09:50PM 40.5531 -73.5025 84° East 269 310 8,000  Level Boston Center
09:51PM 41.1422 -72.8461 72° East  Level Estimated
09:51PM 40.5542 -73.3825 89° East 308 354 9,900  Level Boston Center
09:52PM 40.5553 -73.2514 89° East 338 389 11,200 1,260 Climbing Boston Center
09:53PM 40.5561 -73.1011 90° East 376 433 12,500 1,740 Climbing Boston Center
09:54PM 40.5967 -72.9483 71° East 421 484 14,700 2,100 Climbing Boston Center
09:55PM 40.6639 -72.8067 58° Northeast 429 494 16,800 1,800 Climbing Boston Center
09:56PM 40.7308 -72.6592 59° Northeast 442 509 18,300 1,560 Climbing Boston Center
09:57PM 40.7997 -72.5250 56° Northeast 475 547 19,900 1,560 Climbing Boston Center
09:58PM 40.8708 -72.3689 59° Northeast 480 552 21,500 1,440 Climbing Boston Center
09:59PM 40.9433 -72.2119 59° Northeast 490 564 22,900 1,320 Climbing Boston Center
10:00PM 41.0200 -72.0439 59° Northeast 503 579 24,200 1,260 Climbing Boston Center
10:01PM 41.0964 -71.8728 59° Northeast 525 604 25,400 1,080 Climbing Boston Center
10:02PM 41.1767 -71.7011 58° Northeast 537 618 26,500 1,140 Climbing Boston Center
10:03PM 41.2589 -71.5344 57° Northeast 542 624 27,700 1,380 Climbing Boston Center
10:04PM 41.3408 -71.3619 58° Northeast 542 624 29,300 1,440 Climbing Boston Center
10:05PM 41.4158 -71.1833 61° Northeast 547 629 30,700 780 Climbing Boston Center
10:06PM 41.4931 -71.0100 59° Northeast 547 629 31,000 120 Climbing Boston Center
10:07PM 41.5719 -70.8222 61° Northeast 547 629 31,000  Level Boston Center
10:08PM 41.6503 -70.6425 60° Northeast 562 647 31,000  Level Boston Center
10:09PM 41.7286 -70.4622 60° Northeast 562 647 31,000  Level Boston Center
10:10PM 41.8089 -70.2842 59° Northeast 555 639 31,000  Level Boston Center
10:11PM 41.8822 -70.1033 61° Northeast 549 632 31,000  Level Boston Center
10:12PM 41.9617 -69.9133 61° Northeast 562 647 31,000  Level Boston Center
10:13PM 42.0389 -69.7342 60° Northeast 570 656 31,000  Level Boston Center
10:14PM 42.1236 -69.5372 60° Northeast 558 642 31,000  Level Boston Center
10:15PM 42.2064 -69.3567 58° Northeast 563 648 31,000  Level Boston Center
10:16PM 42.2803 -69.1706 62° Northeast 552 635 31,000  Level Boston Center
10:17PM 42.3581 -68.9839 61° Northeast 559 643 31,000  Level Boston Center
10:18PM 42.4336 -68.7997 61° Northeast 559 643 31,000  Level Boston Center
10:19PM 42.5089 -68.6150 61° Northeast 559 643 31,000  Level Boston Center
10:20PM 42.5839 -68.4297 61° Northeast 559 643 31,000  Level Boston Center
10:21PM 42.6586 -68.2497 61° Northeast 554 638 31,000  Level Boston Center
10:22PM 42.7350 -68.0608 61° Northeast 559 643 31,000  Level Boston Center
10:23PM 42.8089 -67.8714 62° Northeast 559 643 31,000  Level Boston Center
10:24PM 42.8828 -67.6872 61° Northeast 559 643 31,000  Level Boston Center
10:25PM 42.9558 -67.4972 62° Northeast 559 643 31,000 240 Level Boston Center
10:26PM 43.0311 -67.3092 61° Northeast 559 643 31,500 720 Climbing Boston Center
10:27PM 43.1036 -67.1208 62° Northeast 559 643 32,500 600 Climbing Boston Center
10:29PM 43.1833 -66.8500 68° East 560 644 33,000 180 Climbing Moncton Center
10:30PM 43.2667 -66.6667 58° Northeast 560 644 33,000  Level Moncton Center
10:31PM 43.3500 -66.4667 60° Northeast 560 644 33,000  Level Moncton Center
10:32PM 43.4167 -66.2833 63° Northeast 550 633 33,000  Level Moncton Center
10:33PM 43.4833 -66.1000 63° Northeast 550 633 33,000  Level Moncton Center
10:34PM 43.5500 -65.9167 63° Northeast 550 633 33,000  Level Moncton Center
10:35PM 43.6333 -65.7333 58° Northeast 560 644 33,000  Level Moncton Center
10:36PM 43.7000 -65.5333 65° Northeast 560 644 33,000  Level Moncton Center
10:37PM 43.7667 -65.3500 63° Northeast 560 644 33,000  Level Moncton Center
10:38PM 43.8500 -65.1333 62° Northeast 560 644 33,000  Level Moncton Center
10:39PM 43.9167 -64.9500 63° Northeast 560 644 33,000  Level Moncton Center
10:40PM 43.9833 -64.7500 65° Northeast 560 644 33,000  Level Moncton Center
10:41PM 44.0500 -64.5667 63° Northeast 560 644 33,000  Level Moncton Center
10:42PM 44.1167 -64.3667 65° Northeast 560 644 33,000  Level Moncton Center
10:43PM 44.2000 -64.1833 58° Northeast 560 644 33,000  Level Moncton Center
10:44PM 44.2667 -63.9833 65° Northeast 560 644 33,000  Level Moncton Center
10:45PM 44.3333 -63.7833 65° Northeast 560 644 33,000  Level Moncton Center
10:46PM 44.4000 -63.5833 65° Northeast 560 644 33,000  Level Moncton Center
10:47PM 44.4667 -63.3833 65° Northeast 560 644 33,000  Level Moncton Center
10:48PM 44.5500 -63.1833 60° Northeast 560 644 33,000  Level Moncton Center
10:49PM 44.6167 -62.9833 65° Northeast 560 644 33,000  Level Moncton Center
10:50PM 44.6833 -62.8000 63° Northeast 560 644 33,000  Level Moncton Center
10:51PM 44.7333 -62.6000 71° East 560 644 33,000  Level Moncton Center
10:52PM 44.8167 -62.4000 60° Northeast 560 644 33,000  Level Moncton Center
10:53PM 44.8833 -62.2000 65° Northeast 560 644 33,000  Level Moncton Center
10:54PM 44.9500 -61.9833 66° East 560 644 33,000  Level Moncton Center
10:55PM 45.0167 -61.8000 63° Northeast 560 644 33,000  Level Moncton Center
10:56PM 45.0667 -61.6000 70° East 560 644 33,000  Level Moncton Center
10:57PM 45.1333 -61.3833 66° East 560 644 33,000  Level Moncton Center
10:58PM 45.2000 -61.2000 63° Northeast 560 644 33,000  Level Moncton Center
10:59PM 45.2667 -61.0000 65° Northeast 560 644 33,000  Level Moncton Center
11:00PM 45.3333 -60.7833 66° East 560 644 33,000  Level Moncton Center
11:01PM 45.4000 -60.5500 68° East 560 644 33,000  Level Gander Center
11:02PM 45.4667 -60.3333 66° East 560 644 33,000  Level Gander Center
11:03PM 45.5333 -60.1333 64° Northeast 560 644 33,000  Level Gander Center
11:04PM 45.6000 -59.9167 66° East 560 644 33,000  Level Gander Center
11:05PM 45.6667 -59.7333 62° Northeast 560 644 33,000  Level Gander Center
11:06PM 45.7333 -59.5167 66° East 560 644 33,000  Level Gander Center
11:07PM 45.7833 -59.3167 70° East 560 644 33,000  Level Gander Center
11:08PM 45.8333 -59.1000 72° East 560 644 33,000  Level Gander Center
11:09PM 45.9000 -58.9167 62° Northeast 560 644 33,000  Level Gander Center
11:10PM 45.9667 -58.6833 68° East 560 644 33,000  Level Gander Center
11:11PM 46.0333 -58.5000 62° Northeast 560 644 33,000  Level Gander Center
11:12PM 46.0833 -58.2667 73° East 560 644 33,000  Level Gander Center
11:13PM 46.1500 -58.0833 62° Northeast 560 644 33,000  Level Gander Center
11:14PM 46.2000 -57.8500 73° East 560 644 33,000  Level Gander Center
11:15PM 46.2500 -57.6667 68° East 560 644 33,000  Level Gander Center
11:16PM 46.3167 -57.4333 67° East 560 644 33,000  Level Gander Center
11:17PM 46.3500 -57.2833 72° East 560 644 33,000  Level Moncton Center
11:18PM 46.4333 -57.0500 63° Northeast 560 644 33,000  Level Gander Center
11:19PM 46.4833 -56.8167 73° East 560 644 33,000  Level Gander Center
11:20PM 46.5500 -56.6167 64° Northeast 560 644 33,000  Level Gander Center
11:21PM 46.6000 -56.4000 71° East 560 644 33,000  Level Gander Center
11:22PM 46.6500 -56.2000 70° East 560 644 33,000  Level Gander Center
11:23PM 46.7000 -55.9667 73° East 560 644 33,000 60 Level Gander Center
11:24PM 46.7500 -55.7667 70° East 560 644 33,200 540 Climbing Gander Center
11:25PM 46.8000 -55.5500 71° East 550 633 34,100 900 Climbing Gander Center
11:26PM 46.8500 -55.3500 70° East 550 633 35,000 420 Climbing Gander Center
11:27PM 46.9000 -55.1167 73° East 550 633 35,000  Level Gander Center
11:28PM 46.9500 -54.9167 70° East 550 633 35,000  Level Gander Center
11:29PM 47.0000 -54.7167 70° East 550 633 35,000  Level Gander Center
11:30PM 47.0500 -54.4833 72° East 540 621 35,000  Level Gander Center
11:31PM 47.1000 -54.2833 70° East 540 621 35,000  Level Gander Center
11:32PM 47.1500 -54.0500 72° East 540 621 35,000  Level Gander Center
11:33PM 47.2000 -53.8500 70° East 550 633 35,000  Level Gander Center
11:34PM 47.2333 -53.6500 76° East 550 633 35,000  Level Gander Center
11:35PM 47.2833 -53.4500 70° East 550 633 35,000  Level Gander Center
11:36PM 47.3333 -53.2167 72° East 550 633 35,000  Level Gander Center
11:37PM 47.3667 -53.0167 76° East 560 644 35,000  Level Gander Center
11:38PM 47.4167 -52.7833 72° East 550 633 35,000  Level Gander Center
11:39PM 47.4667 -52.5667 71° East 560 644 35,000  Level Gander Center
11:40PM 47.5167 -52.3333 72° East 570 656 35,000  Level Gander Center
11:41PM 47.5500 -52.1167 77° East 570 656 35,000  Level Gander Center
11:42PM 47.6000 -51.9000 71° East 570 656 35,000  Level Gander Center
11:43PM 47.6500 -51.6667 72° East 570 656 35,000  Level Gander Center
11:44PM 47.7000 -51.4667 70° East 570 656 35,000  Level Gander Center
11:45PM 47.7500 -51.2000 74° East 570 656 35,000  Level Gander Center
11:46PM 47.7833 -51.0000 76° East 580 667 35,000  Level Gander Center
11:48PM 47.8779 -50.6722 74° East  Level FlightAware Approximate
11:55PM 48.0293 -49.1797 87° East  Level FlightAware Approximate
11:56PM 48.0355 -48.9628 87° East  Level FlightAware Approximate
11:57PM 48.0412 -48.7459 88° East  Level FlightAware Approximate
11:58PM 48.0466 -48.5289 88° East  Level FlightAware Approximate
11:59PM 48.0522 -48.3120 87° East  Level FlightAware Approximate
12:00AM 48.0587 -48.0950 87° East  Level FlightAware Approximate
12:01AM 48.0647 -47.8780 88° East  Level FlightAware Approximate
12:02AM 48.0703 -47.6610 88° East  Level FlightAware Approximate
12:03AM 48.0755 -47.4439 88° East  Level FlightAware Approximate
12:04AM 48.0803 -47.2267 88° East  Level FlightAware Approximate
12:05AM 48.0848 -47.0095 88° East  Level FlightAware Approximate
12:06AM 48.0887 -46.7923 88° East  Level FlightAware Approximate
12:07AM 48.0923 -46.5751 89° East  Level FlightAware Approximate
12:08AM 48.0955 -46.3578 89° East  Level FlightAware Approximate
12:09AM 48.0983 -46.1405 89° East  Level FlightAware Approximate
12:10AM 48.1004 -45.9232 89° East  Level FlightAware Approximate
12:11AM 48.1014 -45.7058 89° East  Level FlightAware Approximate
12:12AM 48.1021 -45.4885 90° East  Level FlightAware Approximate
12:13AM 48.1023 -45.2711 90° East  Level FlightAware Approximate
12:14AM 48.1022 -45.0538 90° East  Level FlightAware Approximate
12:15AM 48.1016 -44.8364 90° East  Level FlightAware Approximate
12:16AM 48.1006 -44.6191 90° East  Level FlightAware Approximate
12:17AM 48.0992 -44.4017 90° East  Level FlightAware Approximate
12:18AM 48.0974 -44.1844 91° East  Level FlightAware Approximate
12:19AM 48.0952 -43.9671 91° East  Level FlightAware Approximate
12:20AM 48.0926 -43.7498 91° East  Level FlightAware Approximate
12:21AM 48.0895 -43.5325 91° East  Level FlightAware Approximate
12:22AM 48.0861 -43.3153 91° East  Level FlightAware Approximate
12:23AM 48.0822 -43.0981 91° East  Level FlightAware Approximate
12:24AM 48.0780 -42.8809 92° East  Level FlightAware Approximate
12:25AM 48.0733 -42.6638 92° East  Level FlightAware Approximate
12:26AM 48.0682 -42.4467 92° East  Level FlightAware Approximate
12:27AM 48.0639 -42.2296 92° East  Level FlightAware Approximate
12:28AM 48.0595 -42.0125 92° East  Level FlightAware Approximate
12:29AM 48.0548 -41.7954 92° East  Level FlightAware Approximate
12:30AM 48.0497 -41.5784 92° East  Level FlightAware Approximate
12:31AM 48.0441 -41.3615 92° East  Level FlightAware Approximate
12:32AM 48.0382 -41.1445 92° East  Level FlightAware Approximate
12:33AM 48.0318 -40.9277 92° East  Level FlightAware Approximate
12:34AM 48.0251 -40.7108 93° East  Level FlightAware Approximate
12:35AM 48.0179 -40.4941 93° East  Level FlightAware Approximate
12:36AM 48.0103 -40.2774 93° East  Level FlightAware Approximate
12:37AM 48.0023 -40.0608 93° East  Level FlightAware Approximate
12:38AM 48.0066 -39.8442 86° East  Level FlightAware Approximate
12:39AM 48.0155 -39.6273 86° East  Level FlightAware Approximate
12:40AM 48.0240 -39.4106 87° East  Level FlightAware Approximate
12:41AM 48.0320 -39.1939 87° East  Level FlightAware Approximate
12:42AM 48.0397 -38.9772 87° East  Level FlightAware Approximate
12:43AM 48.0469 -38.7603 87° East  Level FlightAware Approximate
12:44AM 48.0537 -38.5434 87° East  Level FlightAware Approximate
12:45AM 48.0601 -38.3265 87° East  Level FlightAware Approximate
12:46AM 48.0662 -38.1095 88° East  Level FlightAware Approximate
12:47AM 48.0718 -37.8924 88° East  Level FlightAware Approximate
12:48AM 48.0769 -37.6753 88° East  Level FlightAware Approximate
12:49AM 48.0817 -37.4581 88° East  Level FlightAware Approximate
12:50AM 48.0861 -37.2410 88° East  Level FlightAware Approximate
12:51AM 48.0900 -37.0237 88° East  Level FlightAware Approximate
12:52AM 48.0936 -36.8065 89° East  Level FlightAware Approximate
12:53AM 48.0967 -36.5892 89° East  Level FlightAware Approximate
12:54AM 48.0995 -36.3719 89° East  Level FlightAware Approximate
12:55AM 48.1018 -36.1546 89° East  Level FlightAware Approximate
12:56AM 48.1037 -35.9372 89° East  Level FlightAware Approximate
12:57AM 48.1052 -35.7199 89° East  Level FlightAware Approximate
12:58AM 48.1063 -35.5025 89° East  Level FlightAware Approximate
12:59AM 48.1070 -35.2851 90° East  Level FlightAware Approximate
01:00AM 48.1073 -35.0677 90° East  Level FlightAware Approximate
01:01AM 48.1072 -34.8504 90° East  Level FlightAware Approximate
01:02AM 48.1066 -34.6330 90° East  Level FlightAware Approximate
01:03AM 48.1057 -34.4156 90° East  Level FlightAware Approximate
01:04AM 48.1043 -34.1983 90° East  Level FlightAware Approximate
01:05AM 48.1025 -33.9809 91° East  Level FlightAware Approximate
01:06AM 48.1003 -33.7636 91° East  Level FlightAware Approximate
01:07AM 48.0979 -33.5462 91° East  Level FlightAware Approximate
01:08AM 48.0950 -33.3290 91° East  Level FlightAware Approximate
01:09AM 48.0918 -33.1117 91° East  Level FlightAware Approximate
01:10AM 48.0881 -32.8945 91° East  Level FlightAware Approximate
01:11AM 48.0840 -32.6772 92° East  Level FlightAware Approximate
01:12AM 48.0795 -32.4601 92° East  Level FlightAware Approximate
01:13AM 48.0746 -32.2429 92° East  Level FlightAware Approximate
01:14AM 48.0693 -32.0258 92° East  Level FlightAware Approximate
01:15AM 48.0636 -31.8088 92° East  Level FlightAware Approximate
01:16AM 48.0575 -31.5918 92° East  Level FlightAware Approximate
01:17AM 48.0509 -31.3749 92° East  Level FlightAware Approximate
01:18AM 48.0440 -31.1580 93° East  Level FlightAware Approximate
01:19AM 48.0367 -30.9412 93° East  Level FlightAware Approximate
01:20AM 48.0289 -30.7244 93° East  Level FlightAware Approximate
01:21AM 48.0207 -30.5077 93° East  Level FlightAware Approximate
01:22AM 48.0122 -30.2911 93° East  Level FlightAware Approximate
01:23AM 48.0032 -30.0746 93° East  Level FlightAware Approximate
01:24AM 47.9921 -29.8583 95° East  Level FlightAware Approximate
01:25AM 47.9797 -29.6418 95° East  Level FlightAware Approximate
01:26AM 47.9669 -29.4255 95° East  Level FlightAware Approximate
01:27AM 47.9537 -29.2092 95° East  Level FlightAware Approximate
01:28AM 47.9401 -28.9939 95° East  Level FlightAware Approximate
01:29AM 47.9261 -28.7786 95° East  Level FlightAware Approximate
01:30AM 47.9117 -28.5634 96° East  Level FlightAware Approximate
01:31AM 47.8970 -28.3484 96° East  Level FlightAware Approximate
01:32AM 47.8818 -28.1335 96° East  Level FlightAware Approximate
01:33AM 47.8662 -27.9188 96° East  Level FlightAware Approximate
01:34AM 47.8502 -27.7041 96° East  Level FlightAware Approximate
01:35AM 47.8338 -27.4896 96° East  Level FlightAware Approximate
01:36AM 47.8171 -27.2752 97° East  Level FlightAware Approximate
01:37AM 47.7999 -27.0610 97° East  Level FlightAware Approximate
01:38AM 47.7823 -26.8469 97° East  Level FlightAware Approximate
01:39AM 47.7643 -26.6330 97° East  Level FlightAware Approximate
01:40AM 47.7459 -26.4192 97° East  Level FlightAware Approximate
01:41AM 47.7272 -26.2055 97° East  Level FlightAware Approximate
01:42AM 47.7080 -25.9921 98° East  Level FlightAware Approximate
01:43AM 47.6884 -25.7787 98° East  Level FlightAware Approximate
01:44AM 47.6685 -25.5656 98° East  Level FlightAware Approximate
01:45AM 47.6481 -25.3526 98° East  Level FlightAware Approximate
01:46AM 47.6274 -25.1397 98° East  Level FlightAware Approximate
01:47AM 47.6063 -24.9271 98° East  Level FlightAware Approximate
01:48AM 47.5847 -24.7146 98° East  Level FlightAware Approximate
01:49AM 47.5628 -24.5023 99° East  Level FlightAware Approximate
01:50AM 47.5405 -24.2901 99° East  Level FlightAware Approximate
01:51AM 47.5178 -24.0782 99° East  Level FlightAware Approximate
01:52AM 47.4947 -23.8664 99° East  Level FlightAware Approximate
01:53AM 47.4712 -23.6549 99° East  Level FlightAware Approximate
01:54AM 47.4473 -23.4435 99° East  Level FlightAware Approximate
01:55AM 47.4230 -23.2323 100° East  Level FlightAware Approximate
01:56AM 47.3984 -23.0213 100° East  Level FlightAware Approximate
01:57AM 47.3734 -22.8105 100° East  Level FlightAware Approximate
01:58AM 47.3479 -22.5999 100° East  Level FlightAware Approximate
01:59AM 47.3221 -22.3895 100° East  Level FlightAware Approximate
02:00AM 47.2959 -22.1793 100° East  Level FlightAware Approximate
02:01AM 47.2694 -21.9693 100° East  Level FlightAware Approximate
02:02AM 47.2424 -21.7596 101° East  Level FlightAware Approximate
02:03AM 47.2151 -21.5500 101° East  Level FlightAware Approximate
02:04AM 47.1873 -21.3407 101° East  Level FlightAware Approximate
02:05AM 47.1592 -21.1316 101° East  Level FlightAware Approximate
02:06AM 47.1307 -20.9227 101° East  Level FlightAware Approximate
02:07AM 47.1019 -20.7140 101° East  Level FlightAware Approximate
02:08AM 47.0726 -20.5056 102° East  Level FlightAware Approximate
02:09AM 47.0430 -20.2974 102° East  Level FlightAware Approximate
02:10AM 47.0130 -20.0894 102° East  Level FlightAware Approximate
02:11AM 46.9688 -19.8880 112° Southeast  Level FlightAware Approximate
02:12AM 46.9134 -19.6906 112° Southeast  Level FlightAware Approximate
02:13AM 46.8577 -19.4937 112° Southeast  Level FlightAware Approximate
02:14AM 46.8016 -19.2972 113° Southeast  Level FlightAware Approximate
02:15AM 46.7452 -19.1011 113° Southeast  Level FlightAware Approximate
02:16AM 46.6885 -18.9055 113° Southeast  Level FlightAware Approximate
02:17AM 46.6314 -18.7102 114° Southeast  Level FlightAware Approximate
02:18AM 46.5731 -18.5159 114° Southeast  Level FlightAware Approximate
02:19AM 46.5144 -18.3221 114° Southeast  Level FlightAware Approximate
02:20AM 46.4554 -18.1287 114° Southeast  Level FlightAware Approximate
02:21AM 46.3961 -17.9357 114° Southeast  Level FlightAware Approximate
02:22AM 46.3364 -17.7431 114° Southeast  Level FlightAware Approximate
02:23AM 46.2764 -17.5509 114° Southeast  Level FlightAware Approximate
02:24AM 46.2164 -17.3590 114° Southeast  Level FlightAware Approximate
02:25AM 46.1563 -17.1674 114° Southeast  Level FlightAware Approximate
02:26AM 46.0958 -16.9762 114° Southeast  Level FlightAware Approximate
02:27AM 46.0351 -16.7854 115° Southeast  Level FlightAware Approximate
02:28AM 45.9740 -16.5950 115° Southeast  Level FlightAware Approximate
02:29AM 45.9126 -16.4051 115° Southeast  Level FlightAware Approximate
02:30AM 45.8509 -16.2155 115° Southeast  Level FlightAware Approximate
02:31AM 45.7889 -16.0264 115° Southeast  Level FlightAware Approximate
02:32AM 45.7265 -15.8378 115° Southeast  Level FlightAware Approximate
02:33AM 45.6639 -15.6495 115° Southeast  Level FlightAware Approximate
02:34AM 45.6009 -15.4616 116° Southeast  Level FlightAware Approximate
02:35AM 45.5377 -15.2742 116° Southeast  Level FlightAware Approximate
02:36AM 45.4741 -15.0872 116° Southeast  Level FlightAware Approximate
02:37AM 45.4103 -14.9005 116° Southeast  Level FlightAware Approximate
02:38AM 45.3463 -14.7143 116° Southeast  Level FlightAware Approximate
02:39AM 45.2820 -14.5284 116° Southeast  Level FlightAware Approximate
02:40AM 45.2174 -14.3430 116° Southeast  Level FlightAware Approximate
02:41AM 45.1525 -14.1580 116° Southeast  Level FlightAware Approximate
02:42AM 45.0873 -13.9734 117° Southeast  Level FlightAware Approximate
02:43AM 45.0218 -13.7892 117° Southeast  Level FlightAware Approximate
02:44AM 44.9561 -13.6054 117° Southeast  Level FlightAware Approximate
02:45AM 44.8900 -13.4221 117° Southeast  Level FlightAware Approximate
02:46AM 44.8236 -13.2392 117° Southeast  Level FlightAware Approximate
02:47AM 44.7568 -13.0564 117° Southeast  Level FlightAware Approximate
02:48AM 44.6900 -12.8738 117° Southeast  Level FlightAware Approximate
02:49AM 44.6230 -12.6916 117° Southeast  Level FlightAware Approximate
02:50AM 44.5556 -12.5099 117° Southeast  Level FlightAware Approximate
02:51AM 44.4879 -12.3286 118° Southeast  Level FlightAware Approximate
02:52AM 44.4199 -12.1477 118° Southeast  Level FlightAware Approximate
02:53AM 44.3517 -11.9672 118° Southeast  Level FlightAware Approximate
02:54AM 44.2832 -11.7872 118° Southeast  Level FlightAware Approximate
02:55AM 44.2144 -11.6075 118° Southeast  Level FlightAware Approximate
02:56AM 44.1453 -11.4283 118° Southeast  Level FlightAware Approximate
02:57AM 44.0759 -11.2495 118° Southeast  Level FlightAware Approximate
02:58AM 44.0063 -11.0712 118° Southeast  Level FlightAware Approximate
02:59AM 43.9364 -10.8932 119° Southeast  Level FlightAware Approximate
03:00AM 43.8661 -10.7157 119° Southeast  Level FlightAware Approximate
03:01AM 43.7957 -10.5386 119° Southeast  Level FlightAware Approximate
03:02AM 43.7249 -10.3619 119° Southeast  Level FlightAware Approximate
03:03AM 43.6539 -10.1856 119° Southeast  Level FlightAware Approximate
03:04AM 43.5826 -10.0097 119° Southeast  Level FlightAware Approximate
03:05AM 43.5111 -9.8343 119° Southeast  Level FlightAware Approximate
03:06AM 43.4393 -9.6593 119° Southeast  Level FlightAware Approximate
03:07AM 43.3672 -9.4846 120° Southeast  Level FlightAware Approximate
03:08AM 43.2948 -9.3104 120° Southeast  Level FlightAware Approximate
03:09AM 43.2222 -9.1367 120° Southeast  Level FlightAware Approximate
03:10AM 43.1493 -8.9633 120° Southeast  Level FlightAware Approximate
03:11AM 43.0762 -8.7903 120° Southeast  Level FlightAware Approximate
03:12AM 43.0028 -8.6178 120° Southeast  Level FlightAware Approximate
03:13AM 42.9291 -8.4457 120° Southeast  Level FlightAware Approximate
03:14AM 42.9111 -8.2512 93° East  Level FlightAware Approximate
03:15AM 42.9042 -8.0522 93° East  Level FlightAware Approximate
03:16AM 42.8969 -7.8533 93° East  Level FlightAware Approximate
03:17AM 42.8892 -7.6544 93° East  Level FlightAware Approximate
03:18AM 42.8812 -7.4556 93° East  Level FlightAware Approximate
03:19AM 42.8729 -7.2568 93° East  Level FlightAware Approximate
03:20AM 42.8642 -7.0580 93° East  Level FlightAware Approximate
03:21AM 42.8552 -6.8594 93° East  Level FlightAware Approximate
03:22AM 42.8458 -6.6607 94° East  Level FlightAware Approximate
03:23AM 42.8361 -6.4622 94° East  Level FlightAware Approximate
03:24AM 42.8260 -6.2637 94° East  Level FlightAware Approximate
03:25AM 42.8156 -6.0653 94° East  Level FlightAware Approximate
03:26AM 42.8049 -5.8669 94° East  Level FlightAware Approximate
03:27AM 42.7938 -5.6686 94° East  Level FlightAware Approximate
03:28AM 42.7823 -5.4704 94° East  Level FlightAware Approximate
03:29AM 42.7706 -5.2723 95° East  Level FlightAware Approximate
03:30AM 42.7585 -5.0742 95° East  Level FlightAware Approximate
03:31AM 42.7460 -4.8762 95° East  Level FlightAware Approximate
03:32AM 42.7332 -4.6783 95° East  Level FlightAware Approximate
03:33AM 42.7201 -4.4805 95° East  Level FlightAware Approximate
03:34AM 42.7066 -4.2827 95° East  Level FlightAware Approximate
03:35AM 42.6928 -4.0851 95° East  Level FlightAware Approximate
03:36AM 42.6786 -3.8875 95° East  Level FlightAware Approximate
03:37AM 42.6642 -3.6900 96° East  Level FlightAware Approximate
03:38AM 42.6493 -3.4927 96° East  Level FlightAware Approximate
03:39AM 42.6342 -3.2954 96° East  Level FlightAware Approximate
03:40AM 42.6186 -3.0982 96° East  Level FlightAware Approximate
03:41AM 42.6028 -2.9011 96° East  Level FlightAware Approximate
03:42AM 42.5866 -2.7041 96° East  Level FlightAware Approximate
03:43AM 42.5701 -2.5072 96° East  Level FlightAware Approximate
03:44AM 42.5532 -2.3105 97° East  Level FlightAware Approximate
03:45AM 42.5360 -2.1138 97° East  Level FlightAware Approximate
03:46AM 42.5174 -1.9174 97° East  Level FlightAware Approximate
03:47AM 42.4981 -1.7212 98° East  Level FlightAware Approximate
03:48AM 42.4786 -1.5251 98° East  Level FlightAware Approximate
03:49AM 42.4587 -1.3291 98° East  Level FlightAware Approximate
03:50AM 42.4385 -1.1333 98° East  Level FlightAware Approximate
03:51AM 42.4179 -0.9376 98° East  Level FlightAware Approximate
03:52AM 42.3971 -0.7420 98° East  Level FlightAware Approximate
03:53AM 42.3759 -0.5466 98° East  Level FlightAware Approximate
03:54AM 42.3543 -0.3512 98° East  Level FlightAware Approximate
03:55AM 42.3324 -0.1561 99° East  Level FlightAware Approximate
03:56AM 42.3102 0.0390 99° East  Level FlightAware Approximate
03:57AM 42.2877 0.2339 99° East  Level FlightAware Approximate
03:58AM 42.2648 0.4287 99° East  Level FlightAware Approximate
03:59AM 42.2416 0.6233 99° East  Level FlightAware Approximate
04:00AM 42.2181 0.8178 99° East  Level FlightAware Approximate
04:01AM 42.1942 1.0121 99° East  Level FlightAware Approximate
04:02AM 42.1701 1.2063 99° East  Level FlightAware Approximate
04:03AM 42.1468 1.4006 99° East  Level FlightAware Approximate
04:04AM 42.1234 1.5948 99° East  Level FlightAware Approximate
04:05AM 42.0996 1.7889 99° East  Level FlightAware Approximate
04:06AM 42.0756 1.9828 99° East  Level FlightAware Approximate
04:07AM 42.0512 2.1766 100° East  Level FlightAware Approximate
04:08AM 42.0265 2.3702 100° East  Level FlightAware Approximate
04:09AM 42.0015 2.5634 100° East  Level FlightAware Approximate
04:10AM 41.9762 2.7564 100° East  Level FlightAware Approximate
04:11AM 41.9505 2.9492 100° East  Level FlightAware Approximate
04:12AM 41.9246 3.1419 100° East  Level FlightAware Approximate
04:13AM 41.8983 3.3344 100° East  Level FlightAware Approximate
04:14AM 41.8717 3.5268 100° East  Level FlightAware Approximate
04:15AM 41.8447 3.7190 101° East  Level FlightAware Approximate
04:16AM 41.8175 3.9110 101° East  Level FlightAware Approximate
04:17AM 41.7899 4.1029 101° East  Level FlightAware Approximate
04:18AM 41.7621 4.2946 101° East  Level FlightAware Approximate
04:19AM 41.7339 4.4861 101° East  Level FlightAware Approximate
04:20AM 41.7053 4.6775 101° East  Level FlightAware Approximate
04:21AM 41.6765 4.8687 101° East  Level FlightAware Approximate
04:22AM 41.6469 5.0596 102° East  Level FlightAware Approximate
04:23AM 41.6167 5.2502 102° East  Level FlightAware Approximate
04:24AM 41.5861 5.4407 102° East  Level FlightAware Approximate
04:25AM 41.5553 5.6310 102° East  Level FlightAware Approximate
04:26AM 41.5242 5.8211 102° East  Level FlightAware Approximate
04:27AM 41.4927 6.0110 102° East  Level FlightAware Approximate
04:28AM 41.4610 6.2007 102° East  Level FlightAware Approximate
04:29AM 41.4294 6.3904 102° East  Level FlightAware Approximate
04:30AM 41.3975 6.5799 103° East  Level FlightAware Approximate
04:31AM 41.3652 6.7692 103° East  Level FlightAware Approximate
04:32AM 41.3327 6.9584 103° East  Level FlightAware Approximate
04:33AM 41.2999 7.1473 103° East  Level FlightAware Approximate
04:34AM 41.2667 7.3361 103° East  Level FlightAware Approximate
04:35AM 41.2332 7.5246 103° East  Level FlightAware Approximate
04:36AM 41.1994 7.7130 103° East  Level FlightAware Approximate
04:37AM 41.1654 7.9011 103° East  Level FlightAware Approximate
04:38AM 41.1310 8.0891 104° East  Level FlightAware Approximate
04:39AM 41.0963 8.2769 104° East  Level FlightAware Approximate
04:40AM 41.0613 8.4644 104° East  Level FlightAware Approximate
04:41AM 41.0260 8.6518 104° East  Level FlightAware Approximate
04:42AM 40.9903 8.8390 104° East  Level FlightAware Approximate
04:43AM 40.9544 9.0260 104° East  Level FlightAware Approximate
04:44AM 40.9182 9.2127 104° East  Level FlightAware Approximate
04:45AM 40.8817 9.3993 104° East  Level FlightAware Approximate
04:46AM 40.8449 9.5856 105° East  Level FlightAware Approximate
04:47AM 40.8078 9.7718 105° East  Level FlightAware Approximate
04:48AM 40.7704 9.9577 105° East  Level FlightAware Approximate
04:49AM 40.7327 10.1434 105° East  Level FlightAware Approximate
04:50AM 40.6947 10.3289 105° East  Level FlightAware Approximate
04:51AM 40.6564 10.5142 105° East  Level FlightAware Approximate
04:52AM 40.6178 10.6993 105° East  Level FlightAware Approximate
04:53AM 40.5789 10.8842 105° East  Level FlightAware Approximate
04:54AM 40.5397 11.0688 106° East  Level FlightAware Approximate
04:55AM 40.5002 11.2533 106° East  Level FlightAware Approximate
04:56AM 40.4604 11.4375 106° East  Level FlightAware Approximate
04:57AM 40.4204 11.6215 106° East  Level FlightAware Approximate
04:58AM 40.3800 11.8053 106° East  Level FlightAware Approximate
04:59AM 40.3394 11.9888 106° East  Level FlightAware Approximate
05:00AM 40.2984 12.1722 106° East  Level FlightAware Approximate
05:01AM 40.2572 12.3553 106° East  Level FlightAware Approximate
05:02AM 40.2157 12.5382 107° East  Level FlightAware Approximate
05:03AM 40.1739 12.7209 107° East  Level FlightAware Approximate
05:04AM 40.1318 12.9033 107° East  Level FlightAware Approximate
05:05AM 40.0894 13.0855 107° East  Level FlightAware Approximate
05:06AM 40.0467 13.2675 107° East  Level FlightAware Approximate
05:07AM 40.0038 13.4493 107° East  Level FlightAware Approximate
05:08AM 39.9605 13.6308 107° East  Level FlightAware Approximate
05:09AM 39.9170 13.8121 107° East  Level FlightAware Approximate
05:10AM 39.8732 13.9932 107° East  Level FlightAware Approximate
05:11AM 39.8292 14.1740 108° East  Level FlightAware Approximate
05:12AM 39.7848 14.3546 108° East  Level FlightAware Approximate
05:13AM 39.7402 14.5350 108° East  Level FlightAware Approximate
05:14AM 39.6953 14.7151 108° East  Level FlightAware Approximate
05:15AM 39.6501 14.8950 108° East  Level FlightAware Approximate
05:16AM 39.6046 15.0747 108° East  Level FlightAware Approximate
05:17AM 39.5588 15.2541 108° East  Level FlightAware Approximate
05:18AM 39.5128 15.4333 108° East  Level FlightAware Approximate
05:19AM 39.4665 15.6123 108° East  Level FlightAware Approximate
05:20AM 39.4200 15.7910 109° East  Level FlightAware Approximate
05:21AM 39.3731 15.9695 109° East  Level FlightAware Approximate
05:22AM 39.3260 16.1477 109° East  Level FlightAware Approximate
05:23AM 39.2786 16.3257 109° East  Level FlightAware Approximate
05:24AM 39.2310 16.5035 109° East  Level FlightAware Approximate
05:25AM 39.1834 16.6795 109° East  Level FlightAware Approximate
05:26AM 39.1357 16.8552 109° East  Level FlightAware Approximate
05:27AM 39.0876 17.0307 109° East  Level FlightAware Approximate
05:28AM 39.0393 17.2060 109° East  Level FlightAware Approximate
05:29AM 38.9908 17.3810 110° East  Level FlightAware Approximate
05:30AM 38.9419 17.5558 110° East  Level FlightAware Approximate
05:31AM 38.8928 17.7303 110° East  Level FlightAware Approximate
05:32AM 38.8435 17.9046 110° East  Level FlightAware Approximate
05:33AM 38.7939 18.0787 110° East  Level FlightAware Approximate
05:34AM 38.7440 18.2525 110° East  Level FlightAware Approximate
05:35AM 38.6939 18.4261 110° East  Level FlightAware Approximate
05:36AM 38.6436 18.5994 110° East  Level FlightAware Approximate
05:37AM 38.5929 18.7725 110° East  Level FlightAware Approximate
05:38AM 38.5420 18.9453 111° Southeast  Level FlightAware Approximate
05:39AM 38.4909 19.1179 111° Southeast  Level FlightAware Approximate
05:40AM 38.4395 19.2903 111° Southeast  Level FlightAware Approximate
05:41AM 38.3879 19.4624 111° Southeast  Level FlightAware Approximate
05:42AM 38.3360 19.6342 111° Southeast  Level FlightAware Approximate
05:43AM 38.2838 19.8058 111° Southeast  Level FlightAware Approximate
05:44AM 38.2314 19.9772 111° Southeast  Level FlightAware Approximate
05:45AM 38.1788 20.1483 111° Southeast  Level FlightAware Approximate
05:46AM 38.1259 20.3192 111° Southeast  Level FlightAware Approximate
05:47AM 38.0728 20.4898 112° Southeast  Level FlightAware Approximate
05:48AM 38.0194 20.6602 112° Southeast  Level FlightAware Approximate
05:49AM 37.9658 20.8303 112° Southeast  Level FlightAware Approximate
05:50AM 37.9119 21.0002 112° Southeast  Level FlightAware Approximate
05:51AM 37.8577 21.1698 112° Southeast  Level FlightAware Approximate
05:52AM 37.8034 21.3392 112° Southeast  Level FlightAware Approximate
05:53AM 37.7488 21.5083 112° Southeast  Level FlightAware Approximate
05:54AM 37.6939 21.6772 112° Southeast  Level FlightAware Approximate
05:55AM 37.6389 21.8458 112° Southeast  Level FlightAware Approximate
05:56AM 37.5835 22.0142 112° Southeast  Level FlightAware Approximate
05:57AM 37.5280 22.1823 113° Southeast  Level FlightAware Approximate
05:58AM 37.4721 22.3501 113° Southeast  Level FlightAware Approximate
05:59AM 37.4155 22.5175 113° Southeast  Level FlightAware Approximate
06:00AM 37.3588 22.6846 113° Southeast  Level FlightAware Approximate
06:01AM 37.3018 22.8515 113° Southeast  Level FlightAware Approximate
06:02AM 37.2445 23.0181 113° Southeast  Level FlightAware Approximate
06:03AM 37.1871 23.1844 113° Southeast  Level FlightAware Approximate
06:04AM 37.1294 23.3505 114° Southeast  Level FlightAware Approximate
06:05AM 37.0715 23.5163 114° Southeast  Level FlightAware Approximate
06:06AM 37.0133 23.6819 114° Southeast  Level FlightAware Approximate
06:07AM 36.9549 23.8473 114° Southeast  Level FlightAware Approximate
06:08AM 36.8963 24.0124 114° Southeast  Level FlightAware Approximate
06:09AM 36.8374 24.1772 114° Southeast  Level FlightAware Approximate
06:10AM 36.7784 24.3418 114° Southeast  Level FlightAware Approximate
06:11AM 36.7184 24.5057 115° Southeast  Level FlightAware Approximate
06:12AM 36.6561 24.6682 115° Southeast  Level FlightAware Approximate
06:13AM 36.5936 24.8304 116° Southeast  Level FlightAware Approximate
06:14AM 36.5309 24.9923 116° Southeast  Level FlightAware Approximate
06:15AM 36.4680 25.1540 116° Southeast  Level FlightAware Approximate
06:16AM 36.4048 25.3154 116° Southeast  Level FlightAware Approximate
06:17AM 36.3415 25.4766 116° Southeast  Level FlightAware Approximate
06:18AM 36.2779 25.6374 116° Southeast  Level FlightAware Approximate
06:19AM 36.2141 25.7981 116° Southeast  Level FlightAware Approximate
06:20AM 36.1501 25.9584 116° Southeast  Level FlightAware Approximate
06:21AM 36.0860 26.1186 116° Southeast  Level FlightAware Approximate
06:22AM 36.0223 26.2789 116° Southeast  Level FlightAware Approximate
06:23AM 35.9583 26.4389 116° Southeast  Level FlightAware Approximate
06:24AM 35.8941 26.5987 116° Southeast  Level FlightAware Approximate
06:25AM 35.8297 26.7582 116° Southeast  Level FlightAware Approximate
06:26AM 35.7651 26.9174 117° Southeast  Level FlightAware Approximate
06:27AM 35.7003 27.0764 117° Southeast  Level FlightAware Approximate
06:28AM 35.6353 27.2351 117° Southeast  Level FlightAware Approximate
06:29AM 35.5701 27.3935 117° Southeast  Level FlightAware Approximate
06:30AM 35.5047 27.5517 117° Southeast  Level FlightAware Approximate
06:31AM 35.4390 27.7096 117° Southeast  Level FlightAware Approximate
06:32AM 35.3730 27.8672 117° Southeast  Level FlightAware Approximate
06:33AM 35.3068 28.0245 117° Southeast  Level FlightAware Approximate
06:34AM 35.2404 28.1816 117° Southeast  Level FlightAware Approximate
06:35AM 35.1738 28.3384 117° Southeast  Level FlightAware Approximate
06:36AM 35.1070 28.4949 118° Southeast  Level FlightAware Approximate
06:37AM 35.0400 28.6512 118° Southeast  Level FlightAware Approximate
06:38AM 34.9729 28.8070 118° Southeast  Level FlightAware Approximate
06:39AM 34.9056 28.9625 118° Southeast  Level FlightAware Approximate
06:40AM 34.8381 29.1178 118° Southeast  Level FlightAware Approximate
06:41AM 34.7704 29.2728 118° Southeast  Level FlightAware Approximate
06:42AM 34.7025 29.4275 118° Southeast  Level FlightAware Approximate
06:43AM 34.6340 29.5818 118° Southeast  Level FlightAware Approximate
06:44AM 34.5653 29.7357 118° Southeast  Level FlightAware Approximate
06:45AM 34.4964 29.8894 119° Southeast  Level FlightAware Approximate
06:46AM 34.4273 30.0428 119° Southeast  Level FlightAware Approximate
06:47AM 34.3580 30.1960 119° Southeast  Level FlightAware Approximate
06:48AM 34.2885 30.3489 119° Southeast  Level FlightAware Approximate
06:49AM 34.2189 30.5016 119° Southeast  Level FlightAware Approximate
06:50AM 34.1490 30.6541 119° Southeast  Level FlightAware Approximate
06:51AM 34.0790 30.8062 119° Southeast  Level FlightAware Approximate
06:52AM 34.0087 30.9582 119° Southeast  Level FlightAware Approximate
06:53AM 33.9383 31.1098 119° Southeast  Level FlightAware Approximate
06:54AM 33.8677 31.2612 119° Southeast  Level FlightAware Approximate
06:55AM 33.7969 31.4124 119° Southeast  Level FlightAware Approximate
06:56AM 33.7259 31.5633 119° Southeast  Level FlightAware Approximate
06:57AM 33.6548 31.7140 120° Southeast  Level FlightAware Approximate
06:58AM 33.5834 31.8644 120° Southeast  Level FlightAware Approximate
06:59AM 33.5119 32.0146 120° Southeast  Level FlightAware Approximate
07:00AM 33.4402 32.1645 120° Southeast  Level FlightAware Approximate
07:01AM 33.3683 32.3142 120° Southeast  Level FlightAware Approximate
07:02AM 33.2962 32.4636 120° Southeast  Level FlightAware Approximate
07:03AM 33.2240 32.6128 120° Southeast  Level FlightAware Approximate
07:04AM 33.1516 32.7617 120° Southeast  Level FlightAware Approximate
07:05AM 33.0784 32.9100 121° Southeast  Level FlightAware Approximate
07:06AM 33.0045 33.0577 121° Southeast  Level FlightAware Approximate
07:07AM 32.9308 33.2053 121° Southeast  Level FlightAware Approximate
07:08AM 32.8570 33.3528 121° Southeast  Level FlightAware Approximate
07:09AM 32.7834 33.5003 121° Southeast  Level FlightAware Approximate
07:10AM 32.7096 33.6475 121° Southeast  Level FlightAware Approximate
07:11AM 32.6379 33.7961 120° Southeast  Level FlightAware Approximate
07:12AM 32.5664 33.9447 120° Southeast  Level FlightAware Approximate
07:13AM 32.4948 34.0930 120° Southeast  Level FlightAware Approximate
07:14AM 32.4134 34.2306 135° Southeast  Level FlightAware Approximate
07:15AM 32.3161 34.3565 132° Southeast  Level FlightAware Approximate
07:16AM 32.2217 34.4852 126° Southeast  Level FlightAware Approximate
07:17AM 32.1324 34.6182 125° Southeast  Level FlightAware Approximate
07:18AM 32.0581 34.7632 115° Southeast  Level FlightAware Approximate
07:19AM 32.0000 34.8667 125° Southeast  Level FlightAware Approximate
07:20AM 32.0095 34.8769 125° Southeast  Level Estimated
07:21AM 32.0095 34.8769 125° Southeast  Level Estimated
07:22AM 32.0095 34.8769 125° Southeast  Level Estimated
07:23AM 32.0095 34.8769 125° Southeast  Level Estimated
07:24AM 32.0095 34.8769 125° Southeast  Level Estimated
07:25AM 32.0095 34.8769 125° Southeast  Level Estimated
07:26AM 32.0095 34.8769 125° Southeast  Level Estimated
07:27AM 32.0095 34.8769 125° Southeast  Level Estimated
07:28AM 32.0095 34.8769 125° Southeast  Level Estimated
07:29AM 32.0095 34.8769 125° Southeast  Level Estimated
07:30AM 32.0095 34.8769 125° Southeast  Level Estimated